• Join FlightAware (Why Join?)
  • Login
  • US Flag 
12:35AM EDT


 

Airport Tracker/Info


-or-


 

Live Flight TrackerFlight Track Log ✈ DAL3643 ✈ 01-May-2013 ✈ KSTL - KCVG

Flight Track Log - Related Links

Times and Time Zones

All times are in EDT time to prevent confusion due to time zone crossing. See the DAL3643 flight status page for this flight to view local times or setup timezone preferences in your user account.

Time Position Orientation Groundspeed Altitude Reporting Facility
EDT Latitude Longitude Course Direction KTS MPH feet Rate Location/Type
11:45AM 38.7333 -90.3333 107° East 161 185 1,600  Level Gateway (St. Louis) TRACON
11:46AM 38.7167 -90.2667 108° East 216 249 3,500 1,800 Climbing Gateway (St. Louis) TRACON
11:46AM 38.7219 -90.2550 60° Northeast 203 234 3,800 2,700 Climbing Kansas City Center
11:47AM 38.7028 -90.1656 105° East 242 278 7,200 3,600 Climbing Kansas City Center
11:48AM 38.6429 -89.9978 111° Southeast  Level FlightAware Approximate
11:49AM 38.6106 -89.8695 107° East  Level FlightAware Approximate
11:49AM 38.6794 -90.0581 106° East 260 299 11,300  Level Kansas City Center
11:50AM 38.5802 -89.7404 107° East  Level FlightAware Approximate
11:50AM 38.6481 -89.9669 114° Southeast 276 318 13,900  Level Kansas City Center
11:51AM 38.6189 -89.8681 111° Southeast 294 338 16,200 2,040 Climbing Kansas City Center
11:52AM 38.5886 -89.7617 110° East 314 361 18,200 2,100 Climbing Kansas City Center
11:53AM 38.5542 -89.6356 109° East 329 379 20,600 2,160 Climbing Kansas City Center
11:54AM 38.5200 -89.5122 109° East 342 394 22,700 1,680 Climbing Kansas City Center
11:55AM 38.4869 -89.3956 110° East 350 403 24,100 1,380 Climbing Kansas City Center
11:56AM 38.4533 -89.2747 110° East 360 414 25,600 1,320 Climbing Kansas City Center
11:57AM 38.4183 -89.1417 109° East 367 422 26,900 660 Climbing Kansas City Center
11:58AM 38.4119 -89.0033 93° East 392 451 27,000  Climbing Kansas City Center
11:59AM 38.4028 -88.8494 94° East 400 460 27,000  Level Kansas City Center
12:00PM 38.3953 -88.7069 94° East 402 463 27,000  Level Kansas City Center
12:01PM 38.3839 -88.5558 95° East 401 461 27,000  Level Kansas City Center
12:02PM 38.3750 -88.4158 95° East 398 458 27,000  Level Kansas City Center
12:03PM 38.3833 -88.2750 86° East 395 455 27,000  Level Kansas City Center
12:04PM 38.3975 -88.1342 83° East 399 459 27,000  Level Kansas City Center
12:05PM 38.4103 -87.9944 83° East 397 457 27,000  Level Kansas City Center
12:06PM 38.4228 -87.8536 83° East 399 459 27,000  Level Kansas City Center
12:07PM 38.4344 -87.7158 84° East 395 455 27,000  Level Indianapolis Center
12:08PM 38.4467 -87.5750 84° East 396 456 27,000  Level Indianapolis Center
12:09PM 38.4583 -87.4350 84° East 395 455 27,000 -300 Level Indianapolis Center
12:10PM 38.4700 -87.2919 84° East 398 458 26,400 -840 Descending Indianapolis Center
12:11PM 38.4817 -87.1469 84° East 404 465 25,400 -1,020 Descending Indianapolis Center
12:12PM 38.4919 -87.0025 85° East 400 460 24,400 -1,020 Descending Indianapolis Center
12:13PM 38.5025 -86.8608 85° East 396 456 23,400 -1,080 Descending Indianapolis Center
12:14PM 38.5128 -86.7206 85° East 393 452 22,300 -1,080 Descending Indianapolis Center
12:15PM 38.5272 -86.5839 82° East 388 447 21,300 -660 Descending Indianapolis Center
12:16PM 38.5453 -86.4511 80° East 380 437 21,000 -180 Descending Indianapolis Center
12:17PM 38.5653 -86.2953 81° East 369 425 21,000 -780 Level Indianapolis Center
12:18PM 38.5817 -86.1675 81° East 365 420 19,500 -1,620 Descending Indianapolis Center
12:19PM 38.5983 -86.0411 80° East 361 415 17,700 -1,920 Descending Indianapolis Center
12:20PM 38.6128 -85.9181 81° East 349 402 15,600 -2,100 Descending Indianapolis Center
12:21PM 38.6297 -85.7892 80° East 339 390 13,400 -2,040 Descending Indianapolis Center
12:22PM 38.6442 -85.6689 81° East 341 392 11,400 -1,200 Descending Indianapolis Center
12:23PM 38.6589 -85.5533 81° East 329 379 11,000 -240 Descending Indianapolis Center
12:25PM 38.6769 -85.4444 78° East 317 365 11,000  Level Indianapolis Center
12:26PM 38.7219 -85.3406 61° Northeast 329 379 11,000  Level Indianapolis Center
12:27PM 38.7664 -85.2386 61° Northeast 327 376 11,000  Level Indianapolis Center
12:28PM 38.8192 -85.1181 61° Northeast 329 379 11,000 -480 Level Indianapolis Center
12:29PM 38.8614 -85.0192 61° Northeast 311 358 10,100 -1,020 Descending Indianapolis Center
12:30PM 38.8983 -84.9325 61° Northeast 279 321 9,000 -600 Descending Indianapolis Center
12:31PM 38.9333 -84.8500 61° Northeast 264 304 9,000  Level Cincinnati TRACON
12:31PM 38.9667 -84.7833 57° Northeast 273 314 9,000 -540 Level Cincinnati TRACON
12:32PM 39.0500 -84.7833 360° North 289 333 8,000 -1,620 Descending Cincinnati TRACON
12:34PM 39.1333 -84.7833 360° North 279 321 5,700 -1,620 Descending Cincinnati TRACON
12:35PM 39.1833 -84.7333 38° Northeast 208 239 4,600 -1,080 Descending Cincinnati TRACON
12:36PM 39.1667 -84.7000 123° Southeast 156 180 3,600 -1,140 Descending Cincinnati TRACON
12:37PM 39.1333 -84.6667 142° Southeast 129 148 2,400 -1,200 Descending Cincinnati TRACON